Nearby METARS Reports

 

LFML - Marseille/Marign, France
Distance from station: O 47km
Mise à jour: 27/04/2018 10:00
couvert
couvert
 Wind from NE
Vent: NE 9 km/h
Température: 19°C
Point de rosée: 12°C
Humidité: 64%
Baromètre: 1012 hPa
Clouds: couvert
Visibility: 10 km
Cloud details: couvert 884 m
2018/04/27 08:00 LFML 270800Z AUTO 05005KT 020V080 9999 OVC029 19/12 Q1012 NOSIG
LFMC - Le Luc/Le Cannet, France
Distance from station: ESE 48km
Mise à jour: 27/04/2018 09:00
Mist, nuageux
Mist, nuageux
 Wind from varies
Vent: varies 2 km/h
Température: 16°C
Point de rosée: 15°C
Humidité: 94%
Baromètre: 1012 hPa
Résumé: Mist
Clouds: nuageux
Visibility: 4 km
Cloud details: partiellement nuageux 244 m
nuageux 853 m
2018/04/27 07:00 LFMC 270700Z VRB01KT 4000 BR SCT008 BKN028 16/15 Q1012
LFTH - Hyeres/Le Palyve, France
Distance from station: SSE 53km
Mise à jour: 27/04/2018 10:00
couvert
couvert
 Wind from varies
Vent: varies 4 km/h
Température: 19°C
Point de rosée: 15°C
Humidité: 78%
Baromètre: 1012 hPa
Clouds: couvert
Visibility: 10 km
Cloud details: couvert 792 m
2018/04/27 08:00 LFTH 270800Z AUTO VRB02KT 9999 OVC026 19/15 Q1012 NOSIG